Time;durP1;ratioP1;P1;durP2;ratioP2;P2;SDS_P1;SDS_P2;PMS_P1;PMS_P2;Temp;Humidity;BMP_temperature;BMP_pressure;BME280_temperature;BME280_humidity;BME280_pressure;Samples;Min_cycle;Max_cycle;Signal;HPM_P1;HPM_P2
2022/06/08 00:01:55;;;;;;;6.47;3.45;;;;;13.90;96072.00;;;;8402483;28;20231;-67
2022/06/08 00:05:58;;;;;;;8.50;4.07;;;;;14.00;96092.00;;;;8392628;28;20204;-72
2022/06/08 00:10:05;;;;;;;9.25;4.05;;;;;13.90;96086.00;;;;8388845;28;20279;-70
2022/06/08 00:14:08;;;;;;;8.27;4.55;;;;;13.90;96070.00;;;;8391989;28;20871;-71
2022/06/08 00:18:12;;;;;;;5.45;4.80;;;;;13.90;96073.00;;;;8389749;28;20586;-67
2022/06/08 00:22:15;;;;;;;14.77;4.78;;;;;14.00;96076.00;;;;8395565;28;20577;-71
2022/06/08 00:26:20;;;;;;;9.50;4.43;;;;;14.10;96068.00;;;;8391318;28;20658;-69
2022/06/08 00:30:25;;;;;;;8.80;5.00;;;;;14.20;96060.00;;;;8407005;28;20295;-68
2022/06/08 00:34:29;;;;;;;10.02;4.63;;;;;14.30;96067.00;;;;8378963;28;20283;-72
2022/06/08 00:38:32;;;;;;;10.38;4.70;;;;;14.40;96062.00;;;;8389618;28;20233;-74
2022/06/08 00:42:37;;;;;;;7.85;4.47;;;;;14.50;96058.00;;;;8409748;28;20207;-76
2022/06/08 00:46:40;;;;;;;6.00;4.55;;;;;14.60;96059.00;;;;8395830;28;20203;-71
2022/06/08 00:50:47;;;;;;;10.32;5.05;;;;;14.70;96057.00;;;;8402258;28;20286;-70
2022/06/08 00:54:54;;;;;;;10.45;4.43;;;;;14.80;96050.00;;;;8396895;28;20227;-70
2022/06/08 00:59:00;;;;;;;6.43;4.10;;;;;14.90;96050.00;;;;8399981;28;20239;-71
2022/06/08 01:03:03;;;;;;;6.10;4.03;;;;;15.00;96055.00;;;;8403434;28;20230;-67
2022/06/08 01:07:07;;;;;;;3.63;3.33;;;;;15.10;96055.00;;;;8399353;28;20192;-73
2022/06/08 01:11:14;;;;;;;7.18;3.47;;;;;15.20;96056.00;;;;8404339;28;20295;-70
2022/06/08 01:15:22;;;;;;;4.38;3.40;;;;;15.30;96059.00;;;;8404041;28;20307;-70
2022/06/08 01:19:25;;;;;;;5.68;3.28;;;;;15.40;96049.00;;;;8398886;28;20997;-74
2022/06/08 01:23:29;;;;;;;6.18;3.10;;;;;15.50;96048.00;;;;8384736;28;20209;-73
2022/06/08 01:27:44;;;;;;;5.95;3.45;;;;;15.50;96049.00;;;;8389131;28;20206;-70
2022/06/08 01:31:58;;;;;;;5.85;3.15;;;;;15.50;96043.00;;;;8384232;28;20897;-72
2022/06/08 01:36:20;;;;;;;5.32;3.10;;;;;15.60;96035.00;;;;8389108;28;20722;-69
2022/06/08 01:40:56;;;;;;;5.00;3.35;;;;;15.60;96039.00;;;;8387924;28;20302;-73
2022/06/08 01:49:35;;;;;;;10.63;3.10;;;;;15.70;96020.00;;;;8396303;28;20223;-71
2022/06/08 01:53:51;;;;;;;7.22;3.53;;;;;15.80;96016.00;;;;8398981;28;20209;-72
2022/06/08 01:58:04;;;;;;;10.73;3.22;;;;;15.80;96014.00;;;;8407458;28;20502;-67
2022/06/08 02:02:17;;;;;;;13.82;3.60;;;;;15.80;96019.00;;;;8398886;28;20755;-72
2022/06/08 02:06:25;;;;;;;7.75;3.30;;;;;15.80;96010.00;;;;8384231;28;20203;-74
2022/06/08 02:10:38;;;;;;;13.57;3.85;;;;;15.80;96008.00;;;;8376494;28;20204;-68
2022/06/08 02:14:48;;;;;;;11.88;3.80;;;;;15.70;96010.00;;;;8403886;28;20209;-66
2022/06/08 02:18:57;;;;;;;10.13;4.35;;;;;15.70;96000.00;;;;8416169;28;21048;-66
2022/06/08 02:23:07;;;;;;;5.07;3.85;;;;;15.60;96004.00;;;;8399130;28;20918;-66
2022/06/08 02:27:15;;;;;;;11.75;4.30;;;;;15.60;96001.00;;;;8402663;28;20205;-69
2022/06/08 02:31:23;;;;;;;6.85;3.40;;;;;15.70;95995.00;;;;8401274;28;20291;-70
2022/06/08 02:35:31;;;;;;;7.13;3.58;;;;;15.70;95994.00;;;;8379503;28;20678;-69
2022/06/08 02:39:41;;;;;;;8.60;3.40;;;;;15.60;95988.00;;;;8390154;28;20259;-81
2022/06/08 02:43:48;;;;;;;6.35;3.60;;;;;15.60;95989.00;;;;8395611;28;20207;-70
2022/06/08 02:47:58;;;;;;;8.82;3.05;;;;;15.60;95983.00;;;;8403786;28;20944;-67
2022/06/08 02:52:06;;;;;;;19.08;4.05;;;;;15.60;95982.00;;;;8390927;28;20612;-71
2022/06/08 02:56:18;;;;;;;8.77;3.55;;;;;15.60;95981.00;;;;8391840;28;20227;-68
2022/06/08 03:04:41;;;;;;;4.75;3.22;;;;;15.50;95984.00;;;;8357603;22;20246;-69
2022/06/08 03:08:49;;;;;;;4.80;3.40;;;;;15.30;95994.00;;;;8385526;28;20209;-65
2022/06/08 03:12:59;;;;;;;7.43;3.67;;;;;15.10;95989.00;;;;8396706;28;20282;-68
2022/06/08 03:17:05;;;;;;;15.05;3.78;;;;;15.00;95994.00;;;;8411501;28;20652;-73
2022/06/08 03:21:10;;;;;;;6.88;3.40;;;;;14.90;95995.00;;;;8405740;28;20782;-68
2022/06/08 03:25:14;;;;;;;4.80;3.17;;;;;14.80;96000.00;;;;8390427;28;20240;-69
2022/06/08 03:29:18;;;;;;;7.45;3.40;;;;;14.70;96006.00;;;;8414399;28;20221;-69
2022/06/08 03:33:21;;;;;;;4.05;3.20;;;;;14.50;96005.00;;;;8392605;28;20667;-72
2022/06/08 03:37:26;;;;;;;9.23;3.58;;;;;14.40;96011.00;;;;8383484;28;20275;-78
2022/06/08 03:41:29;;;;;;;13.75;4.03;;;;;14.30;96005.00;;;;8391059;28;20230;-73
2022/06/08 03:45:40;;;;;;;12.43;3.50;;;;;14.20;96006.00;;;;8394734;28;20209;-73
2022/06/08 03:49:43;;;;;;;8.25;3.60;;;;;14.10;96007.00;;;;8406435;28;20207;-67
2022/06/08 03:53:53;;;;;;;4.32;3.15;;;;;14.00;96008.00;;;;8395109;28;20232;-70
2022/06/08 03:57:57;;;;;;;8.45;3.50;;;;;14.10;96011.00;;;;8392950;28;20865;-73
2022/06/08 04:02:00;;;;;;;9.73;3.40;;;;;14.40;96006.00;;;;8393250;28;20598;-71
2022/06/08 04:06:04;;;;;;;6.65;3.40;;;;;14.90;96007.00;;;;8385140;28;20281;-69
2022/06/08 04:10:10;;;;;;;7.00;3.53;;;;;15.50;96010.00;;;;8380267;28;20220;-72
2022/06/08 04:14:13;;;;;;;5.82;3.40;;;;;16.20;96013.00;;;;8380041;28;20286;-69
2022/06/08 04:18:18;;;;;;;3.08;2.70;;;;;17.00;96012.00;;;;8393445;28;20557;-74
2022/06/08 04:22:23;;;;;;;2.10;2.00;;;;;17.70;96008.00;;;;8390888;28;20405;-71
2022/06/08 04:26:32;;;;;;;9.38;2.53;;;;;18.10;95998.00;;;;8381378;28;20200;-71
2022/06/08 04:30:36;;;;;;;6.13;2.70;;;;;17.90;96006.00;;;;8374936;28;20542;-73
2022/06/08 04:34:42;;;;;;;3.40;2.72;;;;;18.10;96013.00;;;;8380398;28;20287;-74
2022/06/08 04:38:45;;;;;;;7.68;2.60;;;;;18.60;96014.00;;;;8381326;28;20235;-76
2022/06/08 04:42:51;;;;;;;3.42;2.42;;;;;19.20;96001.00;;;;8394557;28;20231;-68
2022/06/08 04:46:55;;;;;;;10.73;2.72;;;;;19.70;96018.00;;;;8379548;28;20208;-73
2022/06/08 04:50:58;;;;;;;4.00;2.50;;;;;19.90;96015.00;;;;8370341;28;20281;-69
2022/06/08 04:55:01;;;;;;;2.67;2.42;;;;;20.00;96013.00;;;;8370917;28;20232;-72
2022/06/08 04:59:06;;;;;;;4.25;2.95;;;;;20.20;96014.00;;;;8385999;28;20679;-73
2022/06/08 05:03:09;;;;;;;3.50;2.15;;;;;20.40;96009.00;;;;8391880;28;20318;-72
2022/06/08 05:07:13;;;;;;;4.10;2.58;;;;;20.50;96003.00;;;;8371374;28;20201;-69
2022/06/08 05:11:16;;;;;;;2.70;2.50;;;;;20.50;96007.00;;;;8380179;28;20270;-74
2022/06/08 05:15:24;;;;;;;3.95;2.22;;;;;20.50;95996.00;;;;8371302;28;20315;-74
2022/06/08 05:19:27;;;;;;;5.20;2.30;;;;;20.60;96005.00;;;;8368441;28;20247;-70
2022/06/08 05:23:35;;;;;;;3.67;2.65;;;;;20.90;96001.00;;;;8408923;28;20286;-75
2022/06/08 05:27:38;;;;;;;5.22;2.20;;;;;21.10;96006.00;;;;8399545;28;20192;-77
2022/06/08 05:31:42;;;;;;;2.10;2.00;;;;;21.30;96007.00;;;;8393221;28;20292;-72
2022/06/08 05:35:46;;;;;;;2.55;1.90;;;;;21.50;96004.00;;;;8413583;28;20268;-69
2022/06/08 05:39:49;;;;;;;3.08;2.10;;;;;21.80;96007.00;;;;8385857;28;20309;-77
2022/06/08 05:43:52;;;;;;;1.77;1.67;;;;;21.90;96005.00;;;;8407337;28;20195;-71
2022/06/08 05:47:58;;;;;;;2.03;1.80;;;;;22.30;96004.00;;;;8384415;28;20538;-72
2022/06/08 05:52:02;;;;;;;2.10;1.90;;;;;22.90;96004.00;;;;8395748;28;20202;-75
2022/06/08 05:56:07;;;;;;;3.10;1.73;;;;;23.40;96007.00;;;;8386740;28;20215;-70
2022/06/08 06:00:17;;;;;;;3.08;1.90;;;;;23.60;96001.00;;;;8380696;28;20232;-71
2022/06/08 06:04:21;;;;;;;1.75;1.63;;;;;23.90;96006.00;;;;8390319;28;20244;-70
2022/06/08 06:08:25;;;;;;;2.72;1.90;;;;;24.40;96005.00;;;;8384414;28;20638;-72
2022/06/08 06:12:28;;;;;;;2.08;1.45;;;;;24.70;96003.00;;;;8394308;28;20583;-71
2022/06/08 06:16:38;;;;;;;4.07;1.52;;;;;24.90;95997.00;;;;8391856;28;20237;-74
2022/06/08 06:20:44;;;;;;;3.20;1.63;;;;;24.90;95991.00;;;;8393452;28;20228;-70
2022/06/08 06:24:47;;;;;;;2.17;1.60;;;;;25.30;95986.00;;;;8384909;28;20199;-71
2022/06/08 06:28:50;;;;;;;3.22;1.60;;;;;25.90;95983.00;;;;8403753;28;20645;-70
2022/06/08 06:32:53;;;;;;;9.48;3.05;;;;;26.00;95988.00;;;;8392705;28;20197;-71
2022/06/08 06:36:59;;;;;;;5.85;2.33;;;;;26.10;95992.00;;;;8403260;28;20200;-72
2022/06/08 06:41:02;;;;;;;1.45;1.35;;;;;26.40;95982.00;;;;8393748;28;20573;-75
2022/06/08 06:45:07;;;;;;;2.67;1.50;;;;;26.40;95992.00;;;;8409434;28;20287;-75
2022/06/08 06:49:11;;;;;;;3.72;1.73;;;;;26.30;96002.00;;;;8380460;28;20292;-77
2022/06/08 06:53:16;;;;;;;2.55;1.80;;;;;26.30;95997.00;;;;8390152;28;20284;-71
2022/06/08 06:57:19;;;;;;;2.05;1.45;;;;;26.50;95994.00;;;;8386421;28;20200;-73
2022/06/08 07:01:22;;;;;;;4.85;2.05;;;;;26.70;96000.00;;;;8392494;28;20225;-75
2022/06/08 07:05:28;;;;;;;2.90;1.70;;;;;26.70;95993.00;;;;8380277;28;20332;-72
2022/06/08 07:09:33;;;;;;;3.63;1.67;;;;;26.90;95985.00;;;;8390156;28;20201;-72
2022/06/08 07:13:36;;;;;;;1.58;1.48;;;;;27.50;95980.00;;;;8387553;28;20607;-73
2022/06/08 07:17:40;;;;;;;1.50;1.40;;;;;26.70;95975.00;;;;8402477;28;20286;-75
2022/06/08 07:21:43;;;;;;;2.38;1.45;;;;;25.70;95974.00;;;;8392619;28;20219;-70
2022/06/08 07:25:48;;;;;;;3.17;1.58;;;;;25.90;95979.00;;;;8413522;28;20743;-68
2022/06/08 07:29:52;;;;;;;2.58;1.65;;;;;26.90;95975.00;;;;8374105;28;20203;-68
2022/06/08 07:34:02;;;;;;;1.70;1.52;;;;;26.30;95975.00;;;;8395394;28;20199;-75
2022/06/08 07:38:07;;;;;;;2.70;1.48;;;;;26.60;95967.00;;;;8392311;28;20532;-74
2022/06/08 07:42:12;;;;;;;5.03;1.65;;;;;26.50;95967.00;;;;8377388;28;20245;-74
2022/06/08 07:46:17;;;;;;;6.03;1.48;;;;;26.60;95970.00;;;;8386323;28;20614;-73
2022/06/08 07:50:21;;;;;;;3.63;1.40;;;;;27.10;95966.00;;;;8381361;28;20205;-76
2022/06/08 07:54:27;;;;;;;3.00;1.60;;;;;28.20;95953.00;;;;8373067;28;20295;-73
2022/06/08 07:58:31;;;;;;;1.48;1.25;;;;;28.00;95951.00;;;;8367129;28;20706;-72
2022/06/08 08:02:35;;;;;;;2.55;1.30;;;;;29.00;95948.00;;;;8409217;28;20258;-73
2022/06/08 08:06:38;;;;;;;4.57;1.30;;;;;30.10;95936.00;;;;8383027;28;20980;-68
2022/06/08 08:10:41;;;;;;;2.78;1.50;;;;;31.10;95929.00;;;;8398569;28;20215;-73
2022/06/08 08:14:46;;;;;;;4.22;1.27;;;;;31.00;95928.00;;;;8386402;28;20290;-73
2022/06/08 08:18:49;;;;;;;1.13;1.13;;;;;32.00;95922.00;;;;8375846;28;20203;-72
2022/06/08 08:22:53;;;;;;;1.15;1.15;;;;;32.30;95933.00;;;;8363030;28;20229;-72
2022/06/08 08:26:56;;;;;;;2.45;1.20;;;;;32.10;95928.00;;;;8386988;28;20199;-72
2022/06/08 08:31:02;;;;;;;1.42;1.30;;;;;32.70;95923.00;;;;8394261;28;20258;-72
2022/06/08 08:35:12;;;;;;;1.42;1.20;;;;;32.20;95914.00;;;;8380755;28;20207;-71
2022/06/08 08:39:16;;;;;;;4.10;1.40;;;;;31.00;95920.00;;;;8359599;28;20272;-70
2022/06/08 08:43:29;;;;;;;1.85;1.20;;;;;30.10;95909.00;;;;8368058;28;20363;-70
2022/06/08 08:47:42;;;;;;;2.30;1.38;;;;;29.90;95919.00;;;;8387282;28;20212;-71
2022/06/08 08:51:50;;;;;;;1.50;1.40;;;;;29.40;95914.00;;;;8375476;28;20281;-68
2022/06/08 08:56:03;;;;;;;5.20;1.52;;;;;29.10;95916.00;;;;8383049;28;20884;-71
2022/06/08 09:00:18;;;;;;;3.33;1.25;;;;;29.50;95914.00;;;;8384509;28;20282;-72
2022/06/08 09:04:28;;;;;;;3.03;1.25;;;;;30.30;95913.00;;;;8377665;28;20263;-71
2022/06/08 09:08:32;;;;;;;3.83;1.70;;;;;29.70;95913.00;;;;8379717;28;20204;-71
2022/06/08 09:12:35;;;;;;;1.48;1.15;;;;;28.80;95911.00;;;;8372222;28;20210;-70
2022/06/08 09:16:41;;;;;;;2.45;1.30;;;;;28.10;95908.00;;;;8380428;28;20294;-70
2022/06/08 09:20:46;;;;;;;1.35;1.25;;;;;27.70;95912.00;;;;8382876;28;20231;-72
2022/06/08 09:24:54;;;;;;;1.85;1.30;;;;;27.50;95901.00;;;;8377020;28;20332;-69
2022/06/08 09:29:00;;;;;;;4.88;1.45;;;;;27.10;95895.00;;;;8387940;28;20203;-72
2022/06/08 09:33:17;;;;;;;2.22;1.42;;;;;26.80;95887.00;;;;8372953;28;20374;-70
2022/06/08 09:37:24;;;;;;;3.00;1.35;;;;;26.70;95882.00;;;;8403634;28;20204;-77
2022/06/08 09:41:35;;;;;;;1.38;1.30;;;;;27.60;95874.00;;;;8374596;28;20223;-69
2022/06/08 09:45:46;;;;;;;2.30;1.35;;;;;28.20;95865.00;;;;8397835;28;20290;-72
2022/06/08 09:54:24;;;;;;;2.92;1.40;;;;;30.80;95855.00;;;;8391785;28;20192;-72
2022/06/08 09:58:44;;;;;;;1.50;1.40;;;;;31.70;95857.00;;;;8373876;28;20198;-68
2022/06/08 10:03:12;;;;;;;1.92;1.27;;;;;32.80;95847.00;;;;8383063;28;20231;-68
2022/06/08 10:07:19;;;;;;;1.90;1.33;;;;;33.40;95849.00;;;;8378450;28;20201;-73
2022/06/08 10:11:37;;;;;;;2.03;1.30;;;;;33.60;95841.00;;;;8384041;28;20213;-73
2022/06/08 10:15:44;;;;;;;2.72;1.40;;;;;34.00;95844.00;;;;8363509;28;20201;-72
2022/06/08 10:19:59;;;;;;;2.92;1.20;;;;;33.50;95835.00;;;;8363280;28;20549;-73
2022/06/08 10:24:12;;;;;;;4.75;1.50;;;;;31.90;95842.00;;;;8383361;28;20253;-72
2022/06/08 10:28:33;;;;;;;1.38;1.27;;;;;30.80;95829.00;;;;8393165;28;20211;-72
2022/06/08 10:32:41;;;;;;;2.00;1.60;;;;;30.20;95834.00;;;;8386995;28;20219;-72
2022/06/08 10:36:59;;;;;;;4.05;1.40;;;;;29.90;95830.00;;;;8372393;28;20459;-70
2022/06/08 10:45:58;;;;;;;1.83;1.30;;;;;31.10;95814.00;;;;8381149;28;20203;-69
2022/06/08 10:50:28;;;;;;;2.60;1.40;;;;;32.00;95815.00;;;;8385233;28;20244;-69
2022/06/08 10:54:57;;;;;;;1.92;1.45;;;;;33.00;95809.00;;;;8366902;28;20204;-67
2022/06/08 10:59:14;;;;;;;1.50;1.38;;;;;32.60;95808.00;;;;8356103;28;20569;-67
2022/06/08 11:03:36;;;;;;;6.05;1.50;;;;;32.30;95798.00;;;;8355022;28;20243;-69
2022/06/08 11:08:14;;;;;;;7.70;1.70;;;;;32.60;95789.00;;;;8378588;28;20211;-68
2022/06/08 11:12:30;;;;;;;2.72;1.70;;;;;33.90;95785.00;;;;8378784;28;20189;-67
2022/06/08 11:16:35;;;;;;;1.20;1.20;;;;;34.00;95783.00;;;;8399934;28;20300;-69
2022/06/08 11:26:24;;;;;;;2.47;1.35;;;;;32.70;95775.00;;;;8362744;28;20220;-66
2022/06/08 11:30:50;;;;;;;28.58;2.30;;;;;32.30;95772.00;;;;8367065;28;20592;-67
2022/06/08 11:35:40;;;;;;;1.40;1.40;;;;;32.00;95772.00;;;;8365872;28;20247;-67
2022/06/08 11:40:11;;;;;;;1.67;1.50;;;;;31.80;95771.00;;;;8367579;28;20645;-67
2022/06/08 11:44:44;;;;;;;2.28;1.30;;;;;31.60;95765.00;;;;8366852;28;20259;-67
2022/06/08 11:49:27;;;;;;;1.75;1.30;;;;;31.30;95763.00;;;;8366831;28;20693;-67
2022/06/08 11:53:51;;;;;;;2.60;1.30;;;;;31.10;95754.00;;;;8365828;28;20243;-67
2022/06/08 11:58:30;;;;;;;2.38;1.30;;;;;31.90;95749.00;;;;8366576;28;20295;-67
2022/06/08 12:03:03;;;;;;;3.15;1.20;;;;;33.80;95746.00;;;;8365417;28;20662;-67
2022/06/08 12:07:50;;;;;;;1.30;1.20;;;;;34.60;95733.00;;;;8367007;28;20207;-67
2022/06/08 12:12:20;;;;;;;1.50;1.30;;;;;34.00;95735.00;;;;8365935;28;20221;-67
2022/06/08 12:16:58;;;;;;;1.50;1.30;;;;;33.70;95736.00;;;;8364634;28;20291;-67
2022/06/08 12:21:36;;;;;;;1.35;1.20;;;;;34.00;95725.00;;;;8365751;28;20199;-67
2022/06/08 12:26:14;;;;;;;2.45;1.30;;;;;33.60;95721.00;;;;8365161;28;20220;-67
2022/06/08 12:30:54;;;;;;;2.20;1.20;;;;;34.00;95714.00;;;;8365401;28;20284;-67
2022/06/08 12:35:30;;;;;;;2.28;1.38;;;;;33.90;95711.00;;;;8365126;28;20586;-66
2022/06/08 12:39:55;;;;;;;2.72;1.20;;;;;33.30;95708.00;;;;8365130;28;20554;-67
2022/06/08 12:44:34;;;;;;;2.10;1.20;;;;;32.90;95703.00;;;;8364797;28;20648;-67
2022/06/08 12:49:16;;;;;;;1.10;1.10;;;;;33.60;95699.00;;;;8364955;28;20228;-67
2022/06/08 12:53:50;;;;;;;1.20;1.20;;;;;33.30;95698.00;;;;8364599;28;20287;-67
2022/06/08 12:57:54;;;;;;;1.38;1.35;;;;;32.80;95689.00;;;;8364714;28;20239;-67
2022/06/08 13:02:33;;;;;;;4.80;1.58;;;;;32.50;95683.00;;;;8364151;28;20227;-73
2022/06/08 13:07:07;;;;;;;2.80;1.40;;;;;32.20;95673.00;;;;8365314;28;20279;-66
2022/06/08 13:11:45;;;;;;;4.53;1.30;;;;;31.70;95671.00;;;;8364035;28;20232;-67
2022/06/08 13:16:21;;;;;;;1.20;1.15;;;;;31.10;95665.00;;;;8364651;28;20542;-67
2022/06/08 13:20:54;;;;;;;3.25;1.30;;;;;30.80;95657.00;;;;8363875;28;20204;-68
2022/06/08 13:25:33;;;;;;;3.40;1.27;;;;;30.30;95657.00;;;;8364889;28;20685;-68
2022/06/08 13:30:10;;;;;;;1.33;1.23;;;;;30.50;95652.00;;;;8363282;28;20191;-68
2022/06/08 13:34:48;;;;;;;2.45;1.30;;;;;31.20;95649.00;;;;8363998;28;20737;-69
2022/06/08 13:39:25;;;;;;;2.17;1.30;;;;;31.50;95647.00;;;;8364141;28;20185;-68
2022/06/08 13:43:59;;;;;;;3.60;1.30;;;;;31.40;95644.00;;;;8363437;28;20299;-68
2022/06/08 13:48:09;;;;;;;4.72;1.40;;;;;31.70;95646.00;;;;8363282;28;20318;-68
2022/06/08 13:52:38;;;;;;;8.43;1.73;;;;;31.50;95642.00;;;;8370735;28;20600;-68
2022/06/08 13:57:11;;;;;;;2.47;1.52;;;;;31.20;95640.00;;;;8369669;28;20192;-68
2022/06/08 14:01:18;;;;;;;1.67;1.48;;;;;30.50;95629.00;;;;8370106;28;20594;-68
2022/06/08 14:14:35;;;;;;;2.80;1.40;;;;;31.60;95617.00;;;;8368622;28;20263;-69
2022/06/08 14:19:16;;;;;;;3.92;1.40;;;;;30.90;95612.00;;;;8369775;28;20251;-69
2022/06/08 14:23:54;;;;;;;3.42;1.60;;;;;30.70;95608.00;;;;8368911;28;20267;-68
2022/06/08 14:28:25;;;;;;;1.40;1.30;;;;;30.80;95607.00;;;;8368769;28;20312;-68
2022/06/08 14:33:03;;;;;;;1.80;1.20;;;;;31.50;95602.00;;;;8368578;28;20236;-69
2022/06/08 14:37:40;;;;;;;1.65;1.35;;;;;31.10;95602.00;;;;8369496;28;20242;-69
2022/06/08 14:42:18;;;;;;;3.20;1.42;;;;;30.40;95595.00;;;;8368887;28;20284;-69
2022/06/08 14:46:52;;;;;;;1.60;1.10;;;;;30.00;95588.00;;;;8368676;28;20228;-69
2022/06/08 14:51:29;;;;;;;3.03;1.20;;;;;30.60;95585.00;;;;8369194;28;20196;-69
2022/06/08 15:00:16;;;;;;;1.63;1.10;;;;;32.40;95572.00;;;;8367725;28;20533;-69
2022/06/08 15:04:44;;;;;;;1.13;1.00;;;;;31.90;95569.00;;;;8368808;28;20550;-69
2022/06/08 15:09:23;;;;;;;1.20;1.02;;;;;31.20;95560.00;;;;8368429;28;20704;-70
2022/06/08 15:13:59;;;;;;;1.65;1.55;;;;;30.50;95570.00;;;;8367642;28;20263;-70
2022/06/08 15:18:33;;;;;;;1.35;0.90;;;;;30.30;95577.00;;;;8366764;28;20267;-70
2022/06/08 15:23:08;;;;;;;2.92;1.17;;;;;30.20;95570.00;;;;8367686;28;20239;-70
2022/06/08 15:27:45;;;;;;;3.00;1.58;;;;;30.00;95566.00;;;;8367247;28;20276;-70
2022/06/08 15:32:20;;;;;;;1.70;1.17;;;;;29.70;95560.00;;;;8368138;28;20201;-71
2022/06/08 15:36:56;;;;;;;1.40;1.30;;;;;29.50;95561.00;;;;8367348;28;20288;-70
2022/06/08 15:41:30;;;;;;;3.95;1.23;;;;;29.10;95560.00;;;;8366494;28;20268;-73
2022/06/08 15:46:08;;;;;;;2.08;1.40;;;;;28.60;95554.00;;;;8366830;28;20307;-73
2022/06/08 15:50:47;;;;;;;5.32;1.27;;;;;28.40;95553.00;;;;8366531;28;20201;-69
2022/06/08 15:55:25;;;;;;;1.92;1.30;;;;;28.30;95549.00;;;;8367162;28;20550;-69
2022/06/08 16:00:01;;;;;;;3.58;1.65;;;;;28.40;95547.00;;;;8367172;28;20717;-67
2022/06/08 16:04:35;;;;;;;2.92;1.38;;;;;28.70;95554.00;;;;8365832;28;20705;-68
2022/06/08 16:09:12;;;;;;;5.43;1.95;;;;;29.20;95548.00;;;;8365936;28;20311;-68
2022/06/08 16:13:17;;;;;;;3.03;1.40;;;;;29.70;95547.00;;;;8365987;28;20300;-68
2022/06/08 16:17:20;;;;;;;2.63;1.20;;;;;30.10;95547.00;;;;8348758;28;20204;-68
2022/06/08 16:21:57;;;;;;;1.25;1.17;;;;;30.30;95545.00;;;;8365809;28;20228;-68
2022/06/08 16:26:34;;;;;;;2.63;1.40;;;;;30.10;95542.00;;;;8366669;28;20617;-68
2022/06/08 16:31:12;;;;;;;1.83;1.45;;;;;29.90;95544.00;;;;8365930;28;20279;-68
2022/06/08 16:35:46;;;;;;;2.85;1.38;;;;;29.80;95547.00;;;;8366031;28;20280;-68
2022/06/08 16:40:23;;;;;;;1.40;1.30;;;;;30.00;95544.00;;;;8364893;28;20279;-68
2022/06/08 16:44:26;;;;;;;2.90;1.48;;;;;31.00;95547.00;;;;8365292;28;20224;-68
2022/06/08 16:48:33;;;;;;;1.58;1.27;;;;;31.70;95553.00;;;;8365486;28;20641;-68
2022/06/08 16:52:37;;;;;;;1.95;1.10;;;;;31.50;95553.00;;;;8365889;28;20211;-68
2022/06/08 17:01:16;;;;;;;4.18;1.38;;;;;29.50;95553.00;;;;8365699;28;20223;-69
2022/06/08 17:05:54;;;;;;;2.83;1.40;;;;;28.80;95560.00;;;;8363869;28;20231;-69
2022/06/08 17:10:28;;;;;;;1.13;1.13;;;;;28.50;95553.00;;;;8331337;28;20276;-69
2022/06/08 17:15:06;;;;;;;2.15;1.40;;;;;28.10;95557.00;;;;8331309;28;20233;-69
2022/06/08 17:19:43;;;;;;;3.30;1.17;;;;;27.80;95559.00;;;;8332281;28;20284;-69
2022/06/08 17:23:48;;;;;;;1.83;1.30;;;;;27.60;95559.00;;;;8330918;28;20621;-69
2022/06/08 17:27:51;;;;;;;2.25;1.20;;;;;27.50;95558.00;;;;8331323;28;20197;-69
2022/06/08 17:31:55;;;;;;;1.33;1.33;;;;;27.30;95558.00;;;;8331878;28;20618;-69
2022/06/08 17:36:29;;;;;;;1.20;1.20;;;;;27.10;95560.00;;;;8331069;28;20197;-67
2022/06/08 17:41:06;;;;;;;1.33;1.20;;;;;26.90;95561.00;;;;8331190;28;20588;-67
2022/06/08 17:45:44;;;;;;;2.67;1.40;;;;;26.70;95560.00;;;;8331386;28;20228;-68
2022/06/08 17:50:19;;;;;;;2.83;1.30;;;;;26.40;95561.00;;;;8328483;28;20201;-68
2022/06/08 17:54:56;;;;;;;1.85;1.20;;;;;26.10;95557.00;;;;8331244;28;20669;-68
2022/06/08 17:59:30;;;;;;;1.50;1.40;;;;;25.80;95566.00;;;;8330643;28;20229;-67
2022/06/08 18:04:09;;;;;;;2.35;1.75;;;;;25.50;95559.00;;;;8330395;28;20229;-67
2022/06/08 18:08:42;;;;;;;3.25;1.52;;;;;25.20;95570.00;;;;8348436;28;20261;-68
2022/06/08 18:13:16;;;;;;;4.38;1.50;;;;;24.80;95563.00;;;;8331706;28;20690;-68
2022/06/08 18:17:53;;;;;;;1.75;1.48;;;;;24.50;95565.00;;;;8330547;28;20280;-68
2022/06/08 18:22:31;;;;;;;1.75;1.65;;;;;24.20;95570.00;;;;8330312;28;20233;-68
2022/06/08 18:27:09;;;;;;;3.03;1.70;;;;;23.80;95571.00;;;;8331241;28;20225;-68
2022/06/08 18:31:42;;;;;;;3.22;1.52;;;;;23.60;95570.00;;;;8330300;28;20269;-68
2022/06/08 18:36:19;;;;;;;3.28;1.48;;;;;23.40;95577.00;;;;8331587;28;20208;-68
2022/06/08 18:41:01;;;;;;;1.63;1.45;;;;;23.20;95576.00;;;;8336272;28;20285;-68
2022/06/08 18:45:32;;;;;;;1.50;1.50;;;;;23.00;95574.00;;;;8336015;28;20214;-68
2022/06/08 18:50:12;;;;;;;1.70;1.60;;;;;22.80;95575.00;;;;8335808;28;20216;-68
2022/06/08 18:54:46;;;;;;;2.13;1.42;;;;;22.60;95574.00;;;;8335247;28;20308;-67
2022/06/08 18:58:56;;;;;;;2.72;1.40;;;;;22.60;95580.00;;;;8336102;28;20642;-68
2022/06/08 19:03:30;;;;;;;2.33;1.60;;;;;22.40;95578.00;;;;8335036;28;20300;-68
2022/06/08 19:08:08;;;;;;;3.30;1.27;;;;;22.30;95582.00;;;;8334500;28;20232;-69
2022/06/08 19:12:13;;;;;;;3.63;1.88;;;;;22.20;95580.00;;;;8364010;28;20535;-68
2022/06/08 19:16:49;;;;;;;1.55;1.40;;;;;22.00;95584.00;;;;8367275;28;20275;-68
2022/06/08 19:21:23;;;;;;;5.25;1.80;;;;;21.80;95590.00;;;;8368492;28;20283;-68
2022/06/08 19:26:02;;;;;;;2.00;1.50;;;;;21.60;95595.00;;;;8367929;28;20657;-67
2022/06/08 19:30:48;;;;;;;4.30;1.80;;;;;21.50;95601.00;;;;8368013;28;20197;-68
2022/06/08 19:35:14;;;;;;;3.38;1.60;;;;;21.30;95618.00;;;;8366322;28;20220;-68
2022/06/08 19:39:51;;;;;;;2.85;1.50;;;;;21.20;95643.00;;;;8366443;28;20232;-69
2022/06/08 19:44:28;;;;;;;1.80;1.42;;;;;20.80;95650.00;;;;8365512;28;20279;-69
2022/06/08 19:49:07;;;;;;;2.63;1.58;;;;;20.50;95665.00;;;;8365654;28;20239;-68
2022/06/08 19:53:42;;;;;;;5.05;1.58;;;;;20.30;95661.00;;;;8361389;28;20215;-68
2022/06/08 19:58:16;;;;;;;2.15;1.40;;;;;20.10;95666.00;;;;8367483;28;20201;-68
2022/06/08 20:02:53;;;;;;;2.03;1.50;;;;;19.90;95658.00;;;;8363255;28;20287;-68
2022/06/08 20:07:33;;;;;;;3.08;1.70;;;;;19.90;95664.00;;;;8366293;28;20228;-68
2022/06/08 20:16:53;;;;;;;4.38;1.88;;;;;19.60;95676.00;;;;8364637;28;20179;-68
2022/06/08 20:21:27;;;;;;;6.32;1.70;;;;;19.50;95680.00;;;;8365068;28;20192;-70
2022/06/08 20:26:05;;;;;;;4.43;1.42;;;;;19.20;95671.00;;;;8365141;28;20311;-70
2022/06/08 20:30:41;;;;;;;3.40;1.60;;;;;18.80;95670.00;;;;8365337;28;20201;-69
2022/06/08 20:35:16;;;;;;;2.50;1.40;;;;;18.70;95661.00;;;;8365596;28;20228;-70
2022/06/08 20:39:52;;;;;;;3.35;1.83;;;;;18.60;95659.00;;;;8364942;28;20200;-70
2022/06/08 20:44:26;;;;;;;4.30;1.40;;;;;18.50;95663.00;;;;8365867;28;20288;-70
2022/06/08 20:49:04;;;;;;;2.67;1.65;;;;;18.40;95671.00;;;;8365096;28;20622;-70
2022/06/08 20:53:40;;;;;;;6.43;1.90;;;;;18.20;95677.00;;;;8364777;28;20265;-70
2022/06/08 20:58:14;;;;;;;4.45;1.80;;;;;18.00;95690.00;;;;8363928;28;20284;-70
2022/06/08 21:02:51;;;;;;;3.13;1.55;;;;;17.90;95696.00;;;;8365805;28;20279;-70
2022/06/08 21:06:55;;;;;;;2.20;1.85;;;;;17.70;95692.00;;;;8363914;28;20689;-70
2022/06/08 21:10:59;;;;;;;3.10;1.98;;;;;17.70;95698.00;;;;8364843;28;20618;-70
2022/06/08 21:15:02;;;;;;;3.47;1.90;;;;;17.60;95690.00;;;;8364047;28;20283;-70
2022/06/08 21:19:06;;;;;;;2.60;2.00;;;;;17.50;95698.00;;;;8363701;28;20279;-70
2022/06/08 21:23:09;;;;;;;5.25;1.98;;;;;17.40;95704.00;;;;8364868;28;20284;-70
2022/06/08 21:27:48;;;;;;;4.10;1.80;;;;;17.40;95697.00;;;;8364451;28;20684;-71
2022/06/08 21:31:52;;;;;;;3.22;1.83;;;;;17.30;95709.00;;;;8363481;28;20239;-70
2022/06/08 21:35:55;;;;;;;2.60;1.77;;;;;17.20;95716.00;;;;8365001;28;20600;-70
2022/06/08 21:39:58;;;;;;;4.03;2.00;;;;;17.10;95717.00;;;;8363299;28;20549;-70
2022/06/08 21:44:04;;;;;;;4.13;2.33;;;;;17.10;95715.00;;;;8364229;28;20308;-70
2022/06/08 21:48:08;;;;;;;9.73;2.90;;;;;17.00;95721.00;;;;8364336;28;20205;-70
2022/06/08 21:52:45;;;;;;;5.70;2.25;;;;;17.00;95720.00;;;;8364118;28;20280;-70
2022/06/08 21:56:48;;;;;;;4.82;2.38;;;;;16.90;95728.00;;;;8363597;28;20616;-70
2022/06/08 22:00:55;;;;;;;4.22;2.20;;;;;16.90;95719.00;;;;8364663;28;20285;-70
2022/06/08 22:04:58;;;;;;;3.67;2.35;;;;;16.90;95728.00;;;;8363308;28;20311;-70
2022/06/08 22:09:02;;;;;;;6.47;2.42;;;;;16.90;95739.00;;;;8363110;28;20193;-71
2022/06/08 22:13:05;;;;;;;2.97;2.17;;;;;16.90;95732.00;;;;8370254;28;20268;-70